Time;durP1;ratioP1;P1;durP2;ratioP2;P2;SDS_P1;SDS_P2;PMS_P1;PMS_P2;Temp;Humidity;BMP_temperature;BMP_pressure;BME280_temperature;BME280_humidity;BME280_pressure;Samples;Min_cycle;Max_cycle;Signal;HPM_P1;HPM_P2
2023/04/06 00:00:10;;;;;;;3.85;2.65;;;3.90;99.90;;;;;;5005197;28;20050;-78
2023/04/06 00:02:37;;;;;;;4.28;2.83;;;3.80;99.90;;;;;;4998107;28;20042;-78
2023/04/06 00:05:04;;;;;;;4.43;2.63;;;3.80;99.90;;;;;;5002542;28;20046;-78
2023/04/06 00:07:33;;;;;;;4.85;3.05;;;3.80;99.90;;;;;;5005983;28;20137;-78
2023/04/06 00:09:59;;;;;;;3.92;2.70;;;3.80;99.90;;;;;;4994721;28;20125;-78
2023/04/06 00:12:26;;;;;;;4.70;2.95;;;3.70;99.90;;;;;;4999845;28;20047;-77
2023/04/06 00:14:53;;;;;;;6.18;3.00;;;3.70;99.90;;;;;;5022056;28;20052;-79
2023/04/06 00:17:20;;;;;;;4.38;2.50;;;3.70;99.90;;;;;;5016217;28;20106;-78
2023/04/06 00:19:46;;;;;;;5.00;2.72;;;3.60;99.90;;;;;;5021821;28;20085;-77
2023/04/06 00:22:13;;;;;;;6.00;2.80;;;3.60;99.90;;;;;;5026580;28;20088;-78
2023/04/06 00:24:39;;;;;;;4.40;2.83;;;3.60;99.90;;;;;;5018734;28;20054;-78
2023/04/06 00:27:06;;;;;;;5.72;2.70;;;3.50;99.90;;;;;;5020914;28;20049;-78
2023/04/06 00:29:33;;;;;;;3.42;2.42;;;3.50;99.90;;;;;;5022771;28;20050;-78
2023/04/06 00:31:59;;;;;;;3.28;2.25;;;3.50;99.90;;;;;;5018955;28;20044;-79
2023/04/06 00:34:26;;;;;;;4.45;2.63;;;3.50;99.90;;;;;;5013541;28;20081;-79
2023/04/06 00:36:53;;;;;;;6.32;2.53;;;3.40;99.90;;;;;;5002585;28;20051;-81
2023/04/06 00:39:19;;;;;;;4.00;2.47;;;3.40;99.90;;;;;;4999786;28;20065;-80
2023/04/06 00:41:50;;;;;;;4.28;3.08;;;3.40;99.90;;;;;;5005293;28;20046;-78
2023/04/06 00:44:17;;;;;;;6.18;3.13;;;3.40;99.90;;;;;;5014000;28;20054;-78
2023/04/06 00:46:44;;;;;;;3.75;2.30;;;3.40;99.90;;;;;;5007465;28;20026;-78
2023/04/06 00:49:11;;;;;;;3.83;2.83;;;3.30;99.90;;;;;;5014454;28;20049;-79
2023/04/06 00:51:38;;;;;;;2.88;2.53;;;3.30;99.90;;;;;;5019594;28;20054;-78
2023/04/06 00:54:05;;;;;;;3.08;2.42;;;3.30;99.90;;;;;;5019666;28;20072;-79
2023/04/06 00:56:32;;;;;;;4.03;2.25;;;3.20;99.90;;;;;;5016972;28;20041;-78
2023/04/06 00:58:59;;;;;;;4.35;2.38;;;3.20;99.90;;;;;;5017920;28;20077;-78
2023/04/06 01:01:26;;;;;;;3.95;2.70;;;3.20;99.90;;;;;;5021577;28;20042;-78
2023/04/06 01:03:53;;;;;;;4.03;2.45;;;3.20;99.90;;;;;;5001426;28;20046;-79
2023/04/06 01:06:20;;;;;;;3.30;2.40;;;3.20;99.90;;;;;;5003136;28;20184;-79
2023/04/06 01:08:47;;;;;;;4.00;2.30;;;3.10;99.90;;;;;;5003860;28;20411;-79
2023/04/06 01:11:13;;;;;;;3.95;2.40;;;3.10;99.90;;;;;;4995248;28;20062;-79
2023/04/06 01:13:40;;;;;;;2.58;2.10;;;3.10;99.90;;;;;;5002780;28;20135;-77
2023/04/06 01:16:07;;;;;;;5.05;2.85;;;3.10;99.90;;;;;;4998658;28;20427;-78
2023/04/06 01:18:34;;;;;;;3.80;2.75;;;3.00;99.90;;;;;;4995455;28;20050;-77
2023/04/06 01:21:01;;;;;;;3.33;2.63;;;3.00;99.90;;;;;;5000237;28;20057;-79
2023/04/06 01:23:28;;;;;;;5.30;2.53;;;3.00;99.90;;;;;;5007415;28;20034;-79
2023/04/06 01:25:55;;;;;;;3.95;2.42;;;3.00;99.90;;;;;;4996707;28;20046;-79
2023/04/06 01:28:22;;;;;;;5.15;2.53;;;2.90;99.90;;;;;;5002383;28;20078;-80
2023/04/06 01:30:48;;;;;;;6.80;2.88;;;2.90;99.90;;;;;;5009598;28;20041;-79
2023/04/06 01:33:15;;;;;;;4.43;2.20;;;2.90;99.90;;;;;;4999274;28;20058;-79
2023/04/06 01:35:42;;;;;;;4.28;3.10;;;2.90;99.90;;;;;;5000434;28;20073;-79
2023/04/06 01:38:08;;;;;;;3.67;2.55;;;2.80;99.90;;;;;;5008644;28;20065;-79
2023/04/06 01:40:35;;;;;;;2.90;2.40;;;2.80;99.90;;;;;;4999398;28;20056;-79
2023/04/06 01:43:02;;;;;;;2.95;2.40;;;2.80;99.90;;;;;;5002604;28;20494;-79
2023/04/06 01:45:28;;;;;;;2.80;2.50;;;2.80;99.90;;;;;;5004377;28;20046;-80
2023/04/06 01:47:55;;;;;;;4.30;3.13;;;2.80;99.90;;;;;;4999726;28;20057;-79
2023/04/06 01:50:22;;;;;;;3.95;2.65;;;2.80;99.90;;;;;;4999394;28;20072;-79
2023/04/06 01:52:48;;;;;;;4.32;2.40;;;2.70;99.90;;;;;;5010537;28;20085;-79
2023/04/06 01:55:15;;;;;;;3.60;2.40;;;2.70;99.90;;;;;;5008455;28;20130;-80
2023/04/06 01:57:42;;;;;;;4.30;2.90;;;2.70;99.90;;;;;;5006408;28;20052;-79
2023/04/06 02:00:09;;;;;;;3.97;2.45;;;2.70;99.90;;;;;;5010724;28;20050;-79
2023/04/06 02:02:36;;;;;;;4.65;2.42;;;2.60;99.90;;;;;;5003506;28;20042;-78
2023/04/06 02:05:03;;;;;;;4.72;2.30;;;2.60;99.90;;;;;;5004380;28;20088;-79
2023/04/06 02:07:29;;;;;;;6.95;2.45;;;2.60;99.90;;;;;;5003381;28;20050;-79
2023/04/06 02:09:56;;;;;;;2.65;2.45;;;2.60;99.90;;;;;;5006946;28;20109;-78
2023/04/06 02:12:23;;;;;;;3.80;2.83;;;2.60;99.90;;;;;;5002549;28;20061;-78
2023/04/06 02:14:51;;;;;;;7.03;2.63;;;2.60;99.90;;;;;;5002983;28;20121;-79
2023/04/06 02:17:17;;;;;;;7.90;2.67;;;2.50;99.90;;;;;;5005058;28;20050;-77
2023/04/06 02:19:44;;;;;;;7.07;2.47;;;2.50;99.90;;;;;;5001600;28;20084;-77
2023/04/06 02:22:11;;;;;;;3.17;2.53;;;2.50;99.90;;;;;;5008664;28;20057;-79
2023/04/06 02:24:38;;;;;;;4.72;3.10;;;2.50;99.90;;;;;;5010464;28;20130;-79
2023/04/06 02:27:05;;;;;;;4.25;2.53;;;2.50;99.90;;;;;;5001629;28;20044;-79
2023/04/06 02:29:32;;;;;;;4.10;2.63;;;2.40;99.90;;;;;;5008175;28;20046;-78
2023/04/06 02:31:59;;;;;;;5.68;2.88;;;2.40;99.90;;;;;;5008293;28;20046;-77
2023/04/06 02:34:26;;;;;;;5.43;2.95;;;2.40;99.90;;;;;;5000026;28;20126;-78
2023/04/06 02:36:52;;;;;;;4.05;2.55;;;2.40;99.90;;;;;;5004661;28;20399;-78
2023/04/06 02:39:19;;;;;;;3.25;2.67;;;2.40;99.90;;;;;;5009531;28;20123;-77
2023/04/06 02:41:46;;;;;;;3.70;2.70;;;2.40;99.90;;;;;;4999726;28;20050;-78
2023/04/06 02:44:12;;;;;;;3.88;2.63;;;2.40;99.90;;;;;;5005475;28;20080;-79
2023/04/06 02:46:39;;;;;;;3.55;2.17;;;2.30;99.90;;;;;;5012892;28;20046;-79
2023/04/06 02:49:06;;;;;;;4.75;3.15;;;2.30;99.90;;;;;;5003483;28;20129;-78
2023/04/06 02:51:33;;;;;;;3.97;2.50;;;2.30;99.90;;;;;;5006624;28;20049;-79
2023/04/06 02:53:59;;;;;;;5.55;3.45;;;2.30;99.90;;;;;;5004262;28;20056;-79
2023/04/06 02:56:26;;;;;;;4.75;2.33;;;2.30;99.90;;;;;;4996922;28;20050;-78
2023/04/06 02:58:53;;;;;;;3.22;2.45;;;2.30;99.90;;;;;;5005652;28;20133;-79
2023/04/06 03:01:20;;;;;;;5.50;2.80;;;2.20;99.90;;;;;;5006615;28;20042;-78
2023/04/06 03:03:47;;;;;;;8.93;2.92;;;2.20;99.90;;;;;;5002668;28;20046;-79
2023/04/06 03:06:14;;;;;;;9.25;2.95;;;2.20;99.90;;;;;;5001946;28;20478;-79
2023/04/06 03:08:40;;;;;;;4.88;3.15;;;2.20;99.90;;;;;;5010312;28;20153;-78
2023/04/06 03:11:07;;;;;;;4.90;3.45;;;2.10;99.90;;;;;;4999407;28;20061;-79
2023/04/06 03:13:34;;;;;;;5.93;3.05;;;2.10;99.90;;;;;;5004214;28;20065;-78
2023/04/06 03:16:01;;;;;;;6.70;3.92;;;2.00;99.90;;;;;;5010279;28;20141;-78
2023/04/06 03:18:27;;;;;;;4.65;2.80;;;2.00;99.90;;;;;;4999824;28;20109;-78
2023/04/06 03:20:55;;;;;;;3.38;3.05;;;2.00;99.90;;;;;;5003234;28;20054;-78
2023/04/06 03:23:22;;;;;;;8.25;3.58;;;2.00;99.90;;;;;;5004711;28;20069;-78
2023/04/06 03:25:48;;;;;;;5.25;3.03;;;2.00;99.90;;;;;;5001440;28;20053;-78
2023/04/06 03:28:15;;;;;;;4.88;2.70;;;2.00;99.90;;;;;;4998954;28;20046;-78
2023/04/06 03:30:42;;;;;;;3.95;2.90;;;2.00;99.90;;;;;;5004346;28;20050;-77
2023/04/06 03:33:09;;;;;;;7.63;3.58;;;2.00;99.90;;;;;;4998614;28;20051;-78
2023/04/06 03:35:36;;;;;;;4.65;3.40;;;2.00;99.90;;;;;;4998321;28;20427;-78
2023/04/06 03:38:04;;;;;;;4.90;3.28;;;1.90;99.90;;;;;;5006507;28;20045;-77
2023/04/06 03:40:31;;;;;;;4.40;3.13;;;1.90;99.90;;;;;;4997754;28;20046;-78
2023/04/06 03:42:58;;;;;;;5.38;3.00;;;1.90;99.90;;;;;;4999505;28;20420;-79
2023/04/06 03:45:25;;;;;;;6.82;3.90;;;1.90;99.90;;;;;;5002839;28;20049;-79
2023/04/06 03:47:51;;;;;;;3.95;2.80;;;1.90;99.90;;;;;;5004643;28;20092;-78
2023/04/06 03:50:18;;;;;;;7.50;3.70;;;1.80;99.90;;;;;;4998956;28;20081;-78
2023/04/06 03:52:45;;;;;;;4.60;3.13;;;1.80;99.90;;;;;;5000580;28;20128;-78
2023/04/06 03:55:12;;;;;;;4.88;3.33;;;1.80;99.90;;;;;;5007295;28;20093;-78
2023/04/06 03:57:38;;;;;;;4.85;3.47;;;1.80;99.90;;;;;;4995907;28;20054;-78
2023/04/06 04:00:06;;;;;;;4.35;3.35;;;1.80;99.90;;;;;;5002871;28;20136;-78
2023/04/06 04:02:32;;;;;;;6.00;3.65;;;1.80;99.90;;;;;;5006071;28;20418;-78
2023/04/06 04:04:59;;;;;;;4.90;3.55;;;1.80;99.90;;;;;;4996925;28;20042;-77
2023/04/06 04:07:26;;;;;;;4.75;3.40;;;1.80;99.90;;;;;;5003130;28;20133;-78
2023/04/06 04:09:53;;;;;;;3.88;3.40;;;1.80;99.90;;;;;;5003302;28;20044;-79
2023/04/06 04:12:20;;;;;;;4.70;3.35;;;1.80;99.90;;;;;;4997532;28;20154;-78
2023/04/06 04:14:46;;;;;;;6.25;3.15;;;1.70;99.90;;;;;;5000181;28;20043;-77
2023/04/06 04:17:13;;;;;;;5.32;3.90;;;1.70;99.90;;;;;;5004148;28;20056;-78
2023/04/06 04:19:40;;;;;;;3.67;3.10;;;1.70;99.90;;;;;;4995925;28;20064;-78
2023/04/06 04:22:06;;;;;;;4.05;3.05;;;1.70;99.90;;;;;;4997161;28;20042;-78
2023/04/06 04:24:33;;;;;;;5.72;3.63;;;1.70;99.90;;;;;;5006956;28;20130;-78
2023/04/06 04:27:03;;;;;;;7.30;3.17;;;1.70;99.90;;;;;;4997661;28;20046;-78
2023/04/06 04:29:29;;;;;;;7.28;3.30;;;1.70;99.90;;;;;;5000460;28;20053;-78
2023/04/06 04:31:56;;;;;;;5.05;3.38;;;1.60;99.90;;;;;;5003980;28;20048;-78
2023/04/06 04:34:24;;;;;;;5.95;3.67;;;1.60;99.90;;;;;;4997138;28;20123;-78
2023/04/06 04:36:52;;;;;;;9.73;3.40;;;1.60;99.90;;;;;;4997541;28;20046;-78
2023/04/06 04:39:19;;;;;;;5.72;3.22;;;1.60;99.90;;;;;;5000433;28;20136;-78
2023/04/06 04:41:45;;;;;;;3.85;3.08;;;1.60;99.90;;;;;;5000144;28;20042;-78
2023/04/06 04:44:12;;;;;;;5.72;3.20;;;1.60;99.90;;;;;;4997419;28;20498;-77
2023/04/06 04:46:39;;;;;;;6.18;3.70;;;1.60;99.90;;;;;;5004815;28;20445;-78
2023/04/06 04:49:05;;;;;;;5.65;3.38;;;1.60;99.90;;;;;;4998931;28;20043;-78
2023/04/06 04:51:33;;;;;;;4.85;3.17;;;1.60;99.90;;;;;;4995695;28;20490;-78
2023/04/06 04:54:00;;;;;;;5.75;4.13;;;1.50;99.90;;;;;;5003433;28;20047;-78
2023/04/06 04:56:27;;;;;;;6.60;3.38;;;1.50;99.90;;;;;;4999417;28;20062;-78
2023/04/06 04:58:54;;;;;;;5.47;3.33;;;1.50;99.90;;;;;;4995275;28;20085;-79
2023/04/06 05:01:20;;;;;;;8.40;4.22;;;1.50;99.90;;;;;;4998336;28;20050;-78
2023/04/06 05:03:47;;;;;;;11.57;4.45;;;1.50;99.90;;;;;;5002713;28;20069;-78
2023/04/06 05:06:14;;;;;;;5.63;4.60;;;1.50;99.90;;;;;;4993873;28;20046;-77
2023/04/06 05:08:41;;;;;;;8.23;4.40;;;1.50;99.90;;;;;;5001664;28;20042;-78
2023/04/06 05:11:09;;;;;;;6.05;4.28;;;1.50;99.90;;;;;;5003876;28;20046;-77
2023/04/06 05:13:36;;;;;;;8.95;4.60;;;1.50;99.90;;;;;;4996672;28;20046;-78
2023/04/06 05:16:02;;;;;;;10.88;4.43;;;1.50;99.90;;;;;;5009690;28;20529;-78
2023/04/06 05:18:29;;;;;;;9.88;5.78;;;1.50;99.90;;;;;;5012297;28;20046;-78
2023/04/06 05:20:56;;;;;;;8.70;4.57;;;1.50;99.90;;;;;;5000310;28;20062;-78
2023/04/06 05:23:23;;;;;;;8.80;4.45;;;1.50;99.90;;;;;;5010434;28;20570;-78
2023/04/06 05:25:50;;;;;;;7.30;4.47;;;1.50;99.90;;;;;;5014013;28;20069;-78
2023/04/06 05:28:17;;;;;;;7.85;4.40;;;1.60;99.90;;;;;;5005251;28;20086;-78
2023/04/06 05:30:45;;;;;;;10.10;4.82;;;1.50;99.90;;;;;;5013274;28;20101;-78
2023/04/06 05:33:12;;;;;;;7.88;4.60;;;1.50;99.90;;;;;;5016787;28;20049;-78
2023/04/06 05:35:39;;;;;;;4.43;3.80;;;1.60;99.90;;;;;;5019641;28;20047;-78
2023/04/06 05:38:09;;;;;;;6.63;4.68;;;1.60;99.90;;;;;;5008961;28;20069;-78
2023/04/06 05:40:41;;;;;;;10.77;4.43;;;1.60;99.90;;;;;;5012292;28;20048;-78
2023/04/06 05:43:08;;;;;;;7.18;4.45;;;1.60;99.90;;;;;;4997360;28;20129;-79
2023/04/06 05:45:34;;;;;;;5.60;4.10;;;1.70;99.90;;;;;;5004367;28;20053;-78
2023/04/06 05:48:02;;;;;;;8.25;4.40;;;1.70;99.90;;;;;;5009813;28;20049;-78
2023/04/06 05:50:29;;;;;;;6.60;4.15;;;1.70;99.90;;;;;;5002122;28;20050;-78
2023/04/06 05:52:55;;;;;;;12.00;4.80;;;1.80;99.90;;;;;;5001420;28;20518;-78
2023/04/06 05:55:22;;;;;;;6.90;4.20;;;1.80;99.90;;;;;;5007675;28;20437;-78
2023/04/06 05:57:49;;;;;;;6.05;3.60;;;1.80;99.90;;;;;;5005399;28;20513;-77
2023/04/06 06:00:16;;;;;;;6.95;3.80;;;1.90;99.90;;;;;;5002942;28;20057;-78
2023/04/06 06:02:43;;;;;;;4.85;3.53;;;1.90;99.90;;;;;;5010573;28;20056;-78
2023/04/06 06:05:10;;;;;;;8.27;5.40;;;1.90;99.90;;;;;;5005827;28;20046;-78
2023/04/06 06:07:37;;;;;;;6.80;4.78;;;1.90;99.90;;;;;;5004060;28;20046;-78
2023/04/06 06:10:04;;;;;;;6.15;4.63;;;2.00;99.90;;;;;;5010349;28;20048;-79
2023/04/06 06:12:30;;;;;;;6.85;3.80;;;2.00;99.90;;;;;;5004284;28;20054;-78
2023/04/06 06:14:57;;;;;;;5.38;3.40;;;2.10;99.90;;;;;;5003872;28;20060;-78
2023/04/06 06:17:24;;;;;;;5.22;3.55;;;2.10;99.90;;;;;;5006357;28;20046;-78
2023/04/06 06:19:51;;;;;;;5.05;3.30;;;2.10;99.90;;;;;;4998514;28;20053;-78
2023/04/06 06:22:18;;;;;;;4.05;3.28;;;2.20;99.90;;;;;;4997620;28;20046;-78
2023/04/06 06:24:44;;;;;;;6.47;4.18;;;2.20;99.90;;;;;;5002717;28;20056;-79
2023/04/06 06:27:11;;;;;;;26.25;18.13;;;2.30;99.90;;;;;;5005174;28;20047;-78
2023/04/06 06:29:38;;;;;;;39.42;25.33;;;2.30;99.90;;;;;;4998154;28;20049;-78
2023/04/06 06:32:05;;;;;;;21.35;15.07;;;2.40;99.90;;;;;;5002935;28;20042;-78
2023/04/06 06:34:31;;;;;;;20.95;14.27;;;2.40;99.90;;;;;;5002246;28;20050;-78
2023/04/06 06:36:58;;;;;;;14.80;9.52;;;2.40;99.90;;;;;;4992667;28;20054;-78
2023/04/06 06:39:25;;;;;;;10.07;6.43;;;2.50;99.90;;;;;;4996855;28;20050;-78
2023/04/06 06:41:52;;;;;;;8.65;5.93;;;2.50;99.90;;;;;;4998711;28;20081;-79
2023/04/06 06:44:18;;;;;;;7.18;5.15;;;2.60;99.90;;;;;;4997175;28;20433;-77
2023/04/06 06:46:45;;;;;;;12.35;5.50;;;2.60;99.90;;;;;;5001878;28;20046;-77
2023/04/06 06:49:12;;;;;;;7.72;5.68;;;2.70;99.90;;;;;;5007431;28;20046;-77
2023/04/06 06:51:39;;;;;;;6.05;4.90;;;2.70;99.90;;;;;;4997120;28;20077;-79
2023/04/06 06:54:05;;;;;;;7.07;4.75;;;2.80;99.90;;;;;;5003849;28;20046;-77
2023/04/06 06:56:35;;;;;;;7.35;4.90;;;2.80;99.90;;;;;;5001141;28;20046;-79
2023/04/06 06:59:02;;;;;;;8.05;4.75;;;2.90;99.90;;;;;;4997172;28;20049;-78
2023/04/06 07:01:29;;;;;;;5.63;4.40;;;3.00;99.90;;;;;;4998317;28;20050;-78
2023/04/06 07:03:55;;;;;;;10.95;5.80;;;3.00;99.90;;;;;;4999571;28;20057;-81
2023/04/06 07:06:22;;;;;;;15.43;3.90;;;3.10;99.90;;;;;;4996925;28;20108;-79
2023/04/06 07:08:49;;;;;;;5.97;3.58;;;3.10;99.90;;;;;;5001397;28;20125;-79
2023/04/06 07:11:16;;;;;;;4.95;3.70;;;3.20;99.90;;;;;;5010603;28;20049;-77
2023/04/06 07:13:43;;;;;;;8.93;4.82;;;3.30;99.90;;;;;;4998959;28;20046;-78
2023/04/06 07:16:09;;;;;;;9.70;6.78;;;3.30;99.90;;;;;;4994660;28;20054;-79
2023/04/06 07:18:36;;;;;;;14.18;6.15;;;3.40;99.90;;;;;;4995849;28;20069;-79
2023/04/06 07:21:03;;;;;;;10.70;5.97;;;3.50;99.90;;;;;;4990252;28;20061;-80
2023/04/06 07:23:30;;;;;;;12.85;6.18;;;3.60;99.90;;;;;;4996679;28;20065;-79
2023/04/06 07:25:56;;;;;;;13.27;6.22;;;3.70;99.90;;;;;;4997090;28;20132;-79
2023/04/06 07:28:23;;;;;;;8.82;5.15;;;3.80;99.90;;;;;;4999579;28;20042;-79
2023/04/06 07:30:50;;;;;;;5.80;4.03;;;3.90;99.90;;;;;;4992955;28;20084;-79
2023/04/06 07:33:17;;;;;;;8.35;4.43;;;3.90;99.90;;;;;;5003393;28;20086;-79
2023/04/06 07:35:43;;;;;;;8.48;3.53;;;4.00;99.90;;;;;;4998156;28;20453;-79
2023/04/06 07:38:10;;;;;;;7.95;3.83;;;4.10;99.90;;;;;;4998093;28;20054;-78
2023/04/06 07:40:37;;;;;;;7.93;3.30;;;4.20;99.90;;;;;;5001280;28;20471;-79
2023/04/06 07:43:03;;;;;;;9.02;4.35;;;4.30;99.90;;;;;;5017121;28;20498;-77
2023/04/06 07:45:30;;;;;;;6.63;4.60;;;4.40;99.90;;;;;;4995347;28;20047;-79
2023/04/06 07:47:58;;;;;;;12.55;6.32;;;4.50;99.90;;;;;;4998471;28;21807;-79
2023/04/06 07:50:25;;;;;;;8.93;5.75;;;4.60;99.90;;;;;;4999884;28;20510;-79
2023/04/06 07:52:51;;;;;;;7.18;4.65;;;4.70;99.90;;;;;;4996060;28;20054;-77
2023/04/06 07:55:18;;;;;;;9.60;4.90;;;4.80;99.90;;;;;;4999152;28;20058;-78
2023/04/06 07:57:45;;;;;;;14.07;5.43;;;4.90;99.90;;;;;;5002736;28;20050;-78
2023/04/06 08:00:12;;;;;;;10.95;4.97;;;4.90;99.90;;;;;;4991814;28;20429;-77
2023/04/06 08:02:39;;;;;;;10.57;5.60;;;5.00;99.90;;;;;;4995764;28;20093;-78
2023/04/06 08:05:07;;;;;;;8.45;5.22;;;5.10;99.90;;;;;;5000705;28;20042;-78
2023/04/06 08:07:34;;;;;;;8.75;5.45;;;5.20;99.90;;;;;;4999048;28;20046;-78
2023/04/06 08:10:00;;;;;;;10.70;4.80;;;5.30;99.90;;;;;;5011924;28;20048;-78
2023/04/06 08:12:27;;;;;;;8.80;4.90;;;5.30;99.90;;;;;;4999668;28;20482;-78
2023/04/06 08:14:54;;;;;;;7.78;3.92;;;5.40;99.90;;;;;;4996792;28;20432;-78
2023/04/06 08:17:20;;;;;;;8.70;4.57;;;5.50;99.90;;;;;;4997550;28;20121;-77
2023/04/06 08:19:47;;;;;;;10.73;6.53;;;5.50;99.90;;;;;;4994115;28;20320;-79
2023/04/06 08:22:14;;;;;;;7.85;4.88;;;5.60;99.90;;;;;;4993363;28;20053;-78
2023/04/06 08:24:41;;;;;;;11.82;4.25;;;5.70;99.90;;;;;;4992903;28;20046;-78
2023/04/06 08:27:07;;;;;;;5.90;4.10;;;5.80;99.90;;;;;;4996581;28;20081;-78
2023/04/06 08:29:34;;;;;;;6.65;3.75;;;5.90;99.90;;;;;;4992853;28;20046;-78
2023/04/06 08:32:04;;;;;;;7.70;4.78;;;6.00;99.90;;;;;;4992539;28;20421;-79
2023/04/06 08:34:33;;;;;;;7.30;4.20;;;6.10;99.90;;;;;;5003750;28;20054;-78
2023/04/06 08:37:00;;;;;;;8.75;4.80;;;6.20;99.90;;;;;;4998414;28;20046;-77
2023/04/06 08:39:28;;;;;;;6.28;4.85;;;6.30;99.90;;;;;;5007291;28;20064;-77
2023/04/06 08:41:59;;;;;;;5.72;4.32;;;6.50;99.90;;;;;;5002346;28;20485;-77
2023/04/06 08:44:26;;;;;;;6.22;4.00;;;6.60;99.90;;;;;;4997912;28;20513;-78
2023/04/06 08:46:54;;;;;;;6.47;4.13;;;6.70;99.90;;;;;;4997780;28;20042;-78
2023/04/06 08:49:21;;;;;;;7.20;3.83;;;6.80;99.90;;;;;;5003568;28;20050;-77
2023/04/06 08:51:49;;;;;;;6.00;3.95;;;6.90;99.90;;;;;;4996085;28;20053;-78
2023/04/06 08:54:16;;;;;;;5.53;4.15;;;7.00;99.90;;;;;;4999162;28;20057;-77
2023/04/06 08:56:43;;;;;;;6.35;4.53;;;7.00;99.90;;;;;;5004613;28;20050;-78
2023/04/06 08:59:10;;;;;;;6.43;4.35;;;7.10;99.90;;;;;;5004252;28;20077;-76
2023/04/06 09:01:43;;;;;;;5.70;4.10;;;7.30;99.90;;;;;;4996576;28;20050;-78
2023/04/06 09:04:11;;;;;;;6.03;4.00;;;7.30;99.90;;;;;;5004776;28;20077;-78
2023/04/06 09:06:40;;;;;;;8.23;4.35;;;7.40;99.90;;;;;;4998830;28;20112;-78
2023/04/06 09:09:08;;;;;;;6.57;4.10;;;7.50;99.90;;;;;;4998592;28;20468;-77
2023/04/06 09:11:50;;;;;;;10.07;4.93;;;7.60;99.90;;;;;;4999891;28;20081;-77
2023/04/06 09:14:32;;;;;;;8.52;4.30;;;7.70;99.90;;;;;;5001021;28;20054;-77
2023/04/06 09:16:59;;;;;;;8.00;4.70;;;7.80;99.90;;;;;;4996485;28;20043;-78
2023/04/06 09:19:26;;;;;;;8.00;4.20;;;7.90;99.90;;;;;;5004896;28;20049;-78
2023/04/06 09:22:03;;;;;;;7.60;4.88;;;8.00;99.90;;;;;;5007276;28;20042;-79
2023/04/06 09:24:45;;;;;;;9.30;4.53;;;8.20;99.90;;;;;;4999241;28;20045;-78
2023/04/06 09:27:12;;;;;;;7.97;4.85;;;8.30;99.90;;;;;;5004793;28;20620;-78
2023/04/06 09:29:40;;;;;;;7.38;4.70;;;8.40;99.90;;;;;;4999407;28;20081;-78
2023/04/06 09:32:10;;;;;;;11.20;5.07;;;8.60;99.90;;;;;;4999407;28;20053;-78
2023/04/06 09:34:38;;;;;;;6.03;4.80;;;8.60;99.90;;;;;;5000138;28;20042;-77
2023/04/06 09:37:18;;;;;;;8.05;4.40;;;8.80;99.90;;;;;;4999035;28;20133;-77
2023/04/06 09:39:45;;;;;;;7.32;4.68;;;8.90;99.90;;;;;;4997374;28;20069;-77
2023/04/06 09:42:26;;;;;;;10.43;5.70;;;9.00;99.90;;;;;;5004912;28;20502;-77
2023/04/06 09:44:53;;;;;;;10.60;5.15;;;9.10;99.90;;;;;;4993648;28;20140;-78
2023/04/06 09:47:20;;;;;;;8.85;5.10;;;9.20;99.90;;;;;;4999367;28;20046;-78
2023/04/06 09:49:49;;;;;;;6.97;4.65;;;9.20;99.90;;;;;;5003997;28;20041;-77
2023/04/06 09:52:17;;;;;;;6.53;4.90;;;9.30;99.90;;;;;;4993958;28;20061;-77
2023/04/06 09:54:49;;;;;;;8.45;4.78;;;9.40;99.90;;;;;;4998832;28;20506;-77
2023/04/06 09:57:31;;;;;;;8.43;5.15;;;9.50;99.90;;;;;;5003796;28;20468;-79
2023/04/06 10:00:11;;;;;;;9.15;5.00;;;9.70;99.90;;;;;;5014442;28;20124;-78
2023/04/06 10:03:15;;;;;;;7.50;4.50;;;9.70;99.90;;;;;;4995728;28;20052;-78
2023/04/06 10:06:03;;;;;;;9.35;5.50;;;9.80;99.90;;;;;;5004305;28;20038;-78
2023/04/06 10:08:32;;;;;;;9.45;5.25;;;9.90;99.90;;;;;;4995727;28;20084;-77
2023/04/06 10:11:00;;;;;;;9.98;5.43;;;10.00;99.90;;;;;;4999482;28;20084;-78
2023/04/06 10:13:27;;;;;;;8.88;5.35;;;10.10;99.90;;;;;;5004951;28;20060;-78
2023/04/06 10:15:55;;;;;;;7.35;5.15;;;10.10;99.90;;;;;;5001297;28;20552;-78
2023/04/06 10:18:22;;;;;;;5.68;4.00;;;10.10;99.90;;;;;;5002020;28;20088;-78
2023/04/06 10:21:01;;;;;;;7.13;4.15;;;10.20;99.90;;;;;;5001704;28;20544;-77
2023/04/06 10:23:36;;;;;;;7.97;4.85;;;10.20;99.90;;;;;;5000499;28;20046;-77
2023/04/06 10:26:04;;;;;;;7.13;4.88;;;10.20;99.90;;;;;;5001291;28;20046;-78
2023/04/06 10:28:36;;;;;;;7.72;4.75;;;10.20;99.90;;;;;;5007871;28;20502;-78
2023/04/06 10:31:05;;;;;;;12.07;5.22;;;10.20;99.90;;;;;;4998246;28;20502;-78
2023/04/06 10:33:33;;;;;;;10.18;5.05;;;10.20;99.90;;;;;;5003419;28;20096;-78
2023/04/06 10:36:22;;;;;;;8.85;5.30;;;10.30;99.90;;;;;;5011329;28;20369;-77
2023/04/06 10:38:55;;;;;;;9.70;4.60;;;10.30;99.90;;;;;;4995629;28;20050;-77
2023/04/06 10:41:22;;;;;;;6.80;4.20;;;10.40;99.90;;;;;;5004556;28;20485;-78
2023/04/06 10:44:00;;;;;;;9.20;4.70;;;10.40;99.90;;;;;;5005983;28;20043;-77
2023/04/06 10:46:29;;;;;;;8.13;4.43;;;10.50;99.90;;;;;;4998741;28;20093;-78
2023/04/06 10:48:56;;;;;;;7.45;3.70;;;10.50;99.90;;;;;;4997829;28;20055;-76
2023/04/06 10:51:28;;;;;;;8.38;5.40;;;10.60;99.90;;;;;;5007826;28;20131;-78
2023/04/06 10:53:56;;;;;;;8.85;4.82;;;10.70;99.90;;;;;;4998777;28;20429;-79
2023/04/06 10:56:25;;;;;;;9.10;4.22;;;10.80;99.90;;;;;;5002911;28;20142;-77
2023/04/06 10:58:53;;;;;;;6.55;4.53;;;10.90;99.90;;;;;;5009049;28;20495;-78
2023/04/06 11:01:22;;;;;;;6.95;4.50;;;11.00;99.90;;;;;;5001605;28;20577;-78
2023/04/06 11:03:59;;;;;;;7.35;4.43;;;11.10;99.90;;;;;;5004065;28;20046;-78
2023/04/06 11:06:28;;;;;;;7.90;4.22;;;11.10;99.90;;;;;;5002438;28;20657;-77
2023/04/06 11:08:56;;;;;;;6.93;4.47;;;11.20;99.90;;;;;;5000039;28;20042;-78
2023/04/06 11:11:26;;;;;;;5.38;4.15;;;11.40;99.90;;;;;;5003545;28;20129;-78
2023/04/06 11:13:55;;;;;;;5.53;4.15;;;11.50;99.90;;;;;;5004141;28;20513;-78
2023/04/06 11:16:30;;;;;;;6.53;3.80;;;11.60;99.90;;;;;;4997941;28;20053;-76
2023/04/06 11:18:58;;;;;;;7.78;4.47;;;11.60;99.90;;;;;;4994990;28;20054;-78
2023/04/06 11:21:48;;;;;;;4.97;3.60;;;11.70;99.90;;;;;;5006919;28;20111;-78
2023/04/06 11:24:20;;;;;;;9.30;4.25;;;11.80;99.90;;;;;;4999140;28;20089;-78
2023/04/06 11:26:51;;;;;;;5.13;3.70;;;11.80;99.90;;;;;;5003593;28;20133;-79
2023/04/06 11:29:23;;;;;;;7.95;3.97;;;11.90;99.90;;;;;;5006526;28;20046;-79
2023/04/06 11:32:00;;;;;;;7.70;3.88;;;11.90;99.90;;;;;;4997776;28;20506;-77
2023/04/06 11:34:30;;;;;;;6.07;3.67;;;12.00;99.90;;;;;;5004031;28;20065;-78
2023/04/06 11:37:07;;;;;;;6.00;4.30;;;12.00;99.90;;;;;;5003843;28;20101;-78
2023/04/06 11:39:46;;;;;;;8.27;4.07;;;12.10;99.90;;;;;;5001144;28;20054;-78
2023/04/06 11:42:12;;;;;;;5.05;3.70;;;12.10;99.90;;;;;;5001845;28;20059;-78
2023/04/06 11:44:45;;;;;;;5.72;3.90;;;12.20;99.90;;;;;;5006206;28;20050;-78
2023/04/06 11:47:12;;;;;;;7.15;3.50;;;12.20;99.90;;;;;;4995508;28;20465;-78
2023/04/06 11:49:41;;;;;;;5.82;3.75;;;12.30;99.90;;;;;;5003789;28;20046;-78
2023/04/06 11:52:23;;;;;;;5.32;3.40;;;12.50;99.90;;;;;;5007533;28;20050;-78
2023/04/06 11:54:52;;;;;;;7.57;3.35;;;12.50;99.90;;;;;;4998978;28;20390;-79
2023/04/06 11:57:20;;;;;;;8.90;3.85;;;12.60;99.90;;;;;;5003398;28;20417;-79
2023/04/06 11:59:47;;;;;;;5.60;3.60;;;12.70;99.90;;;;;;5005684;28;20057;-79
2023/04/06 12:02:14;;;;;;;5.15;3.45;;;12.80;99.90;;;;;;4998842;28;20105;-78
2023/04/06 12:04:40;;;;;;;4.07;2.88;;;12.80;99.90;;;;;;5000899;28;20085;-79
2023/04/06 12:07:07;;;;;;;7.93;3.58;;;12.90;99.90;;;;;;5007646;28;20045;-77
2023/04/06 12:09:35;;;;;;;5.43;3.45;;;13.00;99.90;;;;;;5000215;28;20057;-78
2023/04/06 12:12:03;;;;;;;3.65;2.63;;;13.00;99.90;;;;;;5002738;28;20088;-78
2023/04/06 12:14:32;;;;;;;5.03;3.17;;;13.00;99.60;;;;;;5007934;28;20141;-77
2023/04/06 12:16:59;;;;;;;5.93;3.08;;;13.00;99.80;;;;;;5001808;28;20053;-78
2023/04/06 12:19:26;;;;;;;5.43;2.90;;;13.10;98.90;;;;;;5002622;28;20046;-78
2023/04/06 12:21:56;;;;;;;5.70;2.85;;;13.10;98.80;;;;;;5002314;28;20073;-77
2023/04/06 12:24:23;;;;;;;5.25;3.65;;;13.20;99.70;;;;;;5000475;28;20426;-79
2023/04/06 12:26:50;;;;;;;4.30;2.65;;;13.30;99.40;;;;;;4998575;28;20039;-79
2023/04/06 12:29:23;;;;;;;7.50;3.45;;;13.40;99.00;;;;;;5002498;28;20490;-78
2023/04/06 12:31:50;;;;;;;5.97;3.67;;;13.50;98.90;;;;;;5002259;28;20052;-78
2023/04/06 12:34:17;;;;;;;6.68;3.72;;;13.50;97.80;;;;;;5000070;28;20057;-78
2023/04/06 12:36:44;;;;;;;6.35;3.55;;;13.50;98.20;;;;;;5005350;28;20054;-77
2023/04/06 12:39:11;;;;;;;5.13;3.13;;;13.60;98.20;;;;;;5001907;28;20054;-77
2023/04/06 12:41:41;;;;;;;6.30;3.72;;;13.60;97.20;;;;;;5001925;28;20057;-78
2023/04/06 12:44:07;;;;;;;5.03;3.47;;;13.70;97.80;;;;;;5002666;28;20524;-78
2023/04/06 12:46:34;;;;;;;5.20;3.35;;;13.70;98.70;;;;;;5001435;28;20061;-78
2023/04/06 12:49:03;;;;;;;7.35;4.10;;;13.70;98.40;;;;;;4999315;28;20042;-78
2023/04/06 12:51:31;;;;;;;6.57;4.00;;;13.70;97.80;;;;;;5002404;28;20069;-79
2023/04/06 12:53:58;;;;;;;5.45;3.67;;;13.70;97.70;;;;;;5001187;28;20522;-78
2023/04/06 12:56:25;;;;;;;5.60;3.85;;;13.80;99.80;;;;;;4998230;28;20447;-77